• Join FlightAware (Why Join?)
  • Login
  • US Flag 
09:55PM EDT


 

Airport Tracker/Info


-or-


 

Live Flight TrackerFlight Track Log ✈ AWE2690 ✈ 03-Sep-2013 ✈ KIAD - KCLT

Flight Track Log - Related Links

Times and Time Zones

All times are in EDT time to prevent confusion due to time zone crossing. See the AWE2690 flight status page for this flight to view local times or setup timezone preferences in your user account.

Time Position Orientation Groundspeed Altitude Reporting Facility
EDT Latitude Longitude Course Direction KTS MPH feet Rate Location/Type
12:27PM 38.9333 -77.5333 224° Southwest 184 212 2,200  Level Potomac TRACON
12:28PM 38.8833 -77.5833 218° Southwest 264 304 4,600 3,000 Climbing Potomac TRACON
12:29PM 38.6407 -77.5119 189° South  Level FlightAware Approximate
12:29PM 38.8000 -77.5833 180° South 277 319 8,600  Level Potomac TRACON
12:30PM 38.5410 -77.5318 189° South  Level FlightAware Approximate
12:31PM 38.4405 -77.5436 185° South  Level FlightAware Approximate
12:31PM 38.6344 -77.5769 178° South 291 335 13,300  Level Washington Center
12:32PM 38.3709 -77.5988 224° Southwest  Level FlightAware Approximate
12:32PM 38.5489 -77.5747 179° South 296 341 15,800  Level Washington Center
12:33PM 38.4550 -77.5775 181° South 319 367 17,100 1,620 Climbing Washington Center
12:34PM 38.3847 -77.6603 223° Southwest 319 367 19,000 2,040 Climbing Washington Center
12:35PM 38.3144 -77.7511 225° Southwest 345 397 21,200 1,920 Climbing Washington Center
12:36PM 38.2439 -77.8469 227° Southwest 358 412 22,900 1,680 Climbing Washington Center
12:37PM 38.1711 -77.9425 226° Southwest 370 426 24,600 1,680 Climbing Washington Center
12:38PM 38.0981 -78.0431 227° Southwest 380 437 26,300 1,620 Climbing Washington Center
12:39PM 38.0253 -78.1408 227° Southwest 385 443 27,900 840 Climbing Washington Center
12:40PM 37.9564 -78.2439 230° Southwest 385 443 28,000  Climbing Washington Center
12:41PM 37.8722 -78.3619 228° Southwest 401 461 28,000  Level Washington Center
12:42PM 37.7967 -78.4694 228° Southwest 411 473 28,000  Level Washington Center
12:43PM 37.7211 -78.5794 229° Southwest 411 473 28,000  Level Washington Center
12:44PM 37.6453 -78.6867 228° Southwest 416 479 28,000  Level Washington Center
12:45PM 37.5761 -78.7833 228° Southwest 416 479 28,000  Level Washington Center
12:46PM 37.4981 -78.8900 227° Southwest 416 479 28,000  Level Washington Center
12:47PM 37.4219 -78.9992 229° Southwest 421 484 28,000  Level Washington Center
12:48PM 37.3458 -79.1056 228° Southwest 421 484 28,000  Level Washington Center
12:49PM 37.2717 -79.2119 229° Southwest 421 484 28,000  Level Washington Center
12:50PM 37.1708 -79.3033 216° Southwest 410 472 28,000  Level Washington Center
12:51PM 37.0767 -79.3822 214° Southwest 410 472 28,000  Level Washington Center
12:52PM 36.9781 -79.4658 214° Southwest 416 479 28,000  Level Washington Center
12:53PM 36.8839 -79.5417 213° Southwest 416 479 28,000  Level Washington Center
12:54PM 36.7981 -79.6125 213° Southwest 416 479 28,000 -120 Level Washington Center
12:55PM 36.7056 -79.6881 213° Southwest 416 479 27,800 -720 Descending Washington Center
12:56PM 36.5831 -79.7833 212° Southwest 420 483 26,600 -900 Descending Atlanta Center
12:57PM 36.4958 -79.8550 213° Southwest 420 483 26,000 -840 Descending Atlanta Center
12:58PM 36.3964 -79.9350 213° Southwest 426 490 25,000 -1,260 Descending Atlanta Center
12:59PM 36.3069 -80.0092 214° Southwest 418 481 23,500 -1,620 Descending Atlanta Center
01:00PM 36.2075 -80.0939 215° Southwest 408 470 21,800 -5,280 Descending Atlanta Center
01:01PM 36.1203 -80.1703 215° Southwest 398 458 13,000 -1,800 Descending Atlanta Center
01:02PM 36.0369 -80.2408 214° Southwest 386 444 18,300 1,680 Climbing Atlanta Center
01:03PM 35.9578 -80.3064 214° Southwest 375 432 16,400 -1,920 Descending Atlanta Center
01:04PM 35.8847 -80.3736 217° Southwest 333 383 14,500 -1,440 Descending Atlanta Center
01:05PM 35.8175 -80.4278 213° Southwest 330 380 13,600 -1,020 Descending Atlanta Center
01:06PM 35.7400 -80.4953 215° Southwest 291 335 12,500 -900 Descending Atlanta Center
01:07PM 35.6831 -80.5439 215° Southwest 299 344 11,800 -660 Descending Atlanta Center
01:08PM 35.6097 -80.6031 213° Southwest 299 344 11,300 -420 Descending Atlanta Center
01:09PM 35.5444 -80.6594 215° Southwest 299 344 11,000 -120 Descending Atlanta Center
01:10PM 35.4669 -80.7239 214° Southwest 289 333 11,100  Climbing Atlanta Center
01:11PM 35.4097 -80.7719 214° Southwest 299 344 11,000 -600 Descending Atlanta Center
01:12PM 35.3422 -80.8231 212° Southwest 294 338 10,000 -780 Descending Atlanta Center
01:13PM 35.2739 -80.8383 190° South 279 321 9,500 -1,080 Descending Atlanta Center
01:14PM 35.1964 -80.8311 176° South 248 285 7,700 -1,320 Descending Atlanta Center
01:15PM 35.1192 -80.8242 176° South 258 297 6,600 -1,080 Descending Atlanta Center
01:16PM 35.0642 -80.7958 157° South 248 285 5,700 -1,260 Descending Atlanta Center
01:17PM 35.0106 -80.8233 203° Southwest 230 265 4,100 -840 Descending Atlanta Center
01:18PM 35.0267 -80.8836 288° West 208 239 4,000 -600 Descending Atlanta Center
01:19PM 35.0794 -80.9094 338° Northwest 192 221 3,000 -960 Descending Atlanta Center
01:20PM 35.1178 -80.9333 333° Northwest 171 197 2,200 -780 Descending Atlanta Center
01:21PM 35.1617 -80.9342 359° North 135 155 1,600 -540 Descending Atlanta Center
01:23PM 35.2000 -80.9333 335° Northwest  Level FlightAware Approximate
01:30PM 35.2137 -80.9491 335° Northwest  Level Estimated
01:31PM 35.2137 -80.9491 335° Northwest  Level Estimated